sensor_id;sensor_type;location;lat;lon;timestamp;P1;durP1;ratioP1;P2;durP2;ratioP2
25948;SDS011;13961;51.178;4.448;2023-04-06T00:01:38;22.63;;;11.48;;
25948;SDS011;13961;51.178;4.448;2023-04-06T00:04:04;23.17;;;10.95;;
25948;SDS011;13961;51.178;4.448;2023-04-06T00:06:31;23.55;;;10.75;;
25948;SDS011;13961;51.178;4.448;2023-04-06T00:08:57;26.60;;;11.70;;
25948;SDS011;13961;51.178;4.448;2023-04-06T00:11:23;26.75;;;11.95;;
25948;SDS011;13961;51.178;4.448;2023-04-06T00:13:50;25.50;;;11.20;;
25948;SDS011;13961;51.178;4.448;2023-04-06T00:16:16;22.83;;;11.35;;
25948;SDS011;13961;51.178;4.448;2023-04-06T00:18:41;22.75;;;10.70;;
25948;SDS011;13961;51.178;4.448;2023-04-06T00:21:07;23.58;;;11.88;;
25948;SDS011;13961;51.178;4.448;2023-04-06T00:23:33;23.23;;;12.30;;
25948;SDS011;13961;51.178;4.448;2023-04-06T00:25:59;26.73;;;12.13;;
25948;SDS011;13961;51.178;4.448;2023-04-06T00:28:25;25.20;;;10.88;;
25948;SDS011;13961;51.178;4.448;2023-04-06T00:30:54;25.63;;;11.48;;
25948;SDS011;13961;51.178;4.448;2023-04-06T00:33:20;25.90;;;11.00;;
25948;SDS011;13961;51.178;4.448;2023-04-06T00:35:49;20.30;;;10.35;;
25948;SDS011;13961;51.178;4.448;2023-04-06T00:38:15;27.67;;;11.82;;
25948;SDS011;13961;51.178;4.448;2023-04-06T00:40:42;26.27;;;11.07;;
25948;SDS011;13961;51.178;4.448;2023-04-06T00:43:11;24.58;;;10.00;;
25948;SDS011;13961;51.178;4.448;2023-04-06T00:45:37;22.80;;;10.98;;
25948;SDS011;13961;51.178;4.448;2023-04-06T00:48:05;21.67;;;10.27;;
25948;SDS011;13961;51.178;4.448;2023-04-06T00:50:31;25.30;;;10.65;;
25948;SDS011;13961;51.178;4.448;2023-04-06T00:52:57;22.45;;;11.05;;
25948;SDS011;13961;51.178;4.448;2023-04-06T00:55:23;25.92;;;10.80;;
25948;SDS011;13961;51.178;4.448;2023-04-06T00:57:49;19.92;;;9.93;;
25948;SDS011;13961;51.178;4.448;2023-04-06T01:00:16;24.40;;;10.90;;
25948;SDS011;13961;51.178;4.448;2023-04-06T01:02:42;19.90;;;9.82;;
25948;SDS011;13961;51.178;4.448;2023-04-06T01:05:10;20.80;;;10.10;;
25948;SDS011;13961;51.178;4.448;2023-04-06T01:07:37;19.60;;;9.85;;
25948;SDS011;13961;51.178;4.448;2023-04-06T01:10:02;22.52;;;10.05;;
25948;SDS011;13961;51.178;4.448;2023-04-06T01:12:29;19.58;;;9.35;;
25948;SDS011;13961;51.178;4.448;2023-04-06T01:14:54;23.27;;;10.18;;
25948;SDS011;13961;51.178;4.448;2023-04-06T01:17:20;22.33;;;9.93;;
25948;SDS011;13961;51.178;4.448;2023-04-06T01:19:46;20.10;;;9.48;;
25948;SDS011;13961;51.178;4.448;2023-04-06T01:22:17;19.60;;;10.00;;
25948;SDS011;13961;51.178;4.448;2023-04-06T01:24:43;20.88;;;10.00;;
25948;SDS011;13961;51.178;4.448;2023-04-06T01:27:09;18.88;;;10.00;;
25948;SDS011;13961;51.178;4.448;2023-04-06T01:29:35;22.95;;;10.15;;
25948;SDS011;13961;51.178;4.448;2023-04-06T01:32:01;22.30;;;9.23;;
25948;SDS011;13961;51.178;4.448;2023-04-06T01:34:27;20.30;;;9.82;;
25948;SDS011;13961;51.178;4.448;2023-04-06T01:36:52;20.70;;;9.35;;
25948;SDS011;13961;51.178;4.448;2023-04-06T01:39:18;19.20;;;9.95;;
25948;SDS011;13961;51.178;4.448;2023-04-06T01:41:45;20.92;;;9.98;;
25948;SDS011;13961;51.178;4.448;2023-04-06T01:44:12;19.67;;;9.73;;
25948;SDS011;13961;51.178;4.448;2023-04-06T01:46:41;21.05;;;9.52;;
25948;SDS011;13961;51.178;4.448;2023-04-06T01:49:07;20.77;;;10.40;;
25948;SDS011;13961;51.178;4.448;2023-04-06T01:51:33;20.30;;;9.77;;
25948;SDS011;13961;51.178;4.448;2023-04-06T01:53:58;20.35;;;9.80;;
25948;SDS011;13961;51.178;4.448;2023-04-06T01:56:24;20.92;;;9.73;;
25948;SDS011;13961;51.178;4.448;2023-04-06T01:58:50;20.25;;;9.65;;
25948;SDS011;13961;51.178;4.448;2023-04-06T02:01:16;24.17;;;10.02;;
25948;SDS011;13961;51.178;4.448;2023-04-06T02:03:41;21.25;;;9.90;;
25948;SDS011;13961;51.178;4.448;2023-04-06T02:06:07;19.33;;;9.27;;
25948;SDS011;13961;51.178;4.448;2023-04-06T02:08:33;20.42;;;10.20;;
25948;SDS011;13961;51.178;4.448;2023-04-06T02:10:58;21.98;;;10.20;;
25948;SDS011;13961;51.178;4.448;2023-04-06T02:13:24;20.33;;;9.13;;
25948;SDS011;13961;51.178;4.448;2023-04-06T02:15:50;19.70;;;9.30;;
25948;SDS011;13961;51.178;4.448;2023-04-06T02:18:16;21.65;;;9.73;;
25948;SDS011;13961;51.178;4.448;2023-04-06T02:20:43;19.50;;;9.38;;
25948;SDS011;13961;51.178;4.448;2023-04-06T02:23:09;20.63;;;8.95;;
25948;SDS011;13961;51.178;4.448;2023-04-06T02:25:35;22.83;;;9.68;;
25948;SDS011;13961;51.178;4.448;2023-04-06T02:28:01;28.15;;;10.02;;
25948;SDS011;13961;51.178;4.448;2023-04-06T02:30:27;16.70;;;9.32;;
25948;SDS011;13961;51.178;4.448;2023-04-06T02:32:54;21.65;;;9.98;;
25948;SDS011;13961;51.178;4.448;2023-04-06T02:35:20;21.77;;;9.73;;
25948;SDS011;13961;51.178;4.448;2023-04-06T02:37:46;21.15;;;9.27;;
25948;SDS011;13961;51.178;4.448;2023-04-06T02:40:13;22.83;;;9.55;;
25948;SDS011;13961;51.178;4.448;2023-04-06T02:42:39;19.50;;;9.10;;
25948;SDS011;13961;51.178;4.448;2023-04-06T02:45:05;20.20;;;10.15;;
25948;SDS011;13961;51.178;4.448;2023-04-06T02:47:31;20.50;;;9.27;;
25948;SDS011;13961;51.178;4.448;2023-04-06T02:49:56;22.17;;;9.90;;
25948;SDS011;13961;51.178;4.448;2023-04-06T02:52:22;21.85;;;9.60;;
25948;SDS011;13961;51.178;4.448;2023-04-06T02:54:48;22.77;;;10.15;;
25948;SDS011;13961;51.178;4.448;2023-04-06T02:57:13;18.20;;;9.75;;
25948;SDS011;13961;51.178;4.448;2023-04-06T02:59:39;20.63;;;9.38;;
25948;SDS011;13961;51.178;4.448;2023-04-06T03:02:05;18.00;;;9.70;;
25948;SDS011;13961;51.178;4.448;2023-04-06T03:04:30;20.05;;;9.68;;
25948;SDS011;13961;51.178;4.448;2023-04-06T03:06:56;25.38;;;10.00;;
25948;SDS011;13961;51.178;4.448;2023-04-06T03:09:22;19.50;;;9.32;;
25948;SDS011;13961;51.178;4.448;2023-04-06T03:11:47;18.33;;;9.05;;
25948;SDS011;13961;51.178;4.448;2023-04-06T03:14:13;19.33;;;9.38;;
25948;SDS011;13961;51.178;4.448;2023-04-06T03:16:38;19.58;;;9.80;;
25948;SDS011;13961;51.178;4.448;2023-04-06T03:19:04;19.48;;;8.85;;
25948;SDS011;13961;51.178;4.448;2023-04-06T03:21:30;23.95;;;10.48;;
25948;SDS011;13961;51.178;4.448;2023-04-06T03:23:56;28.13;;;10.77;;
25948;SDS011;13961;51.178;4.448;2023-04-06T03:26:22;31.20;;;12.82;;
25948;SDS011;13961;51.178;4.448;2023-04-06T03:28:48;27.67;;;12.60;;
25948;SDS011;13961;51.178;4.448;2023-04-06T03:31:13;29.65;;;12.73;;
25948;SDS011;13961;51.178;4.448;2023-04-06T03:33:39;29.38;;;12.82;;
25948;SDS011;13961;51.178;4.448;2023-04-06T03:36:05;27.92;;;11.85;;
25948;SDS011;13961;51.178;4.448;2023-04-06T03:38:31;30.92;;;12.05;;
25948;SDS011;13961;51.178;4.448;2023-04-06T03:40:57;25.65;;;10.82;;
25948;SDS011;13961;51.178;4.448;2023-04-06T03:43:23;26.50;;;10.27;;
25948;SDS011;13961;51.178;4.448;2023-04-06T03:45:49;24.65;;;11.00;;
25948;SDS011;13961;51.178;4.448;2023-04-06T03:48:14;25.95;;;11.90;;
25948;SDS011;13961;51.178;4.448;2023-04-06T03:50:40;29.67;;;12.60;;
25948;SDS011;13961;51.178;4.448;2023-04-06T03:53:06;29.42;;;13.40;;
25948;SDS011;13961;51.178;4.448;2023-04-06T03:55:31;45.00;;;16.85;;
25948;SDS011;13961;51.178;4.448;2023-04-06T03:57:57;32.88;;;12.88;;
25948;SDS011;13961;51.178;4.448;2023-04-06T04:00:23;29.02;;;12.40;;
25948;SDS011;13961;51.178;4.448;2023-04-06T04:02:48;23.63;;;10.80;;
25948;SDS011;13961;51.178;4.448;2023-04-06T04:05:14;23.48;;;9.77;;
25948;SDS011;13961;51.178;4.448;2023-04-06T04:07:40;20.65;;;10.02;;
25948;SDS011;13961;51.178;4.448;2023-04-06T04:10:07;20.40;;;10.02;;
25948;SDS011;13961;51.178;4.448;2023-04-06T04:12:33;18.30;;;9.25;;
25948;SDS011;13961;51.178;4.448;2023-04-06T04:14:59;20.35;;;9.35;;
25948;SDS011;13961;51.178;4.448;2023-04-06T04:17:24;23.75;;;10.05;;
25948;SDS011;13961;51.178;4.448;2023-04-06T04:19:50;17.90;;;9.10;;
25948;SDS011;13961;51.178;4.448;2023-04-06T04:22:17;22.42;;;9.63;;
25948;SDS011;13961;51.178;4.448;2023-04-06T04:24:42;20.65;;;9.20;;
25948;SDS011;13961;51.178;4.448;2023-04-06T04:27:08;19.80;;;9.48;;
25948;SDS011;13961;51.178;4.448;2023-04-06T04:29:34;21.48;;;9.55;;
25948;SDS011;13961;51.178;4.448;2023-04-06T04:32:00;19.85;;;9.88;;
25948;SDS011;13961;51.178;4.448;2023-04-06T04:34:25;20.20;;;9.85;;
25948;SDS011;13961;51.178;4.448;2023-04-06T04:36:51;19.35;;;10.02;;
25948;SDS011;13961;51.178;4.448;2023-04-06T04:39:17;22.77;;;9.63;;
25948;SDS011;13961;51.178;4.448;2023-04-06T04:41:43;18.05;;;9.45;;
25948;SDS011;13961;51.178;4.448;2023-04-06T04:44:09;19.65;;;9.57;;
25948;SDS011;13961;51.178;4.448;2023-04-06T04:46:35;18.70;;;8.73;;
25948;SDS011;13961;51.178;4.448;2023-04-06T04:49:00;22.20;;;10.25;;
25948;SDS011;13961;51.178;4.448;2023-04-06T04:51:26;19.38;;;10.23;;
25948;SDS011;13961;51.178;4.448;2023-04-06T04:53:52;18.73;;;9.80;;
25948;SDS011;13961;51.178;4.448;2023-04-06T04:56:17;21.48;;;10.05;;
25948;SDS011;13961;51.178;4.448;2023-04-06T04:58:43;19.42;;;9.30;;
25948;SDS011;13961;51.178;4.448;2023-04-06T05:01:09;22.90;;;10.45;;
25948;SDS011;13961;51.178;4.448;2023-04-06T05:03:36;22.27;;;9.65;;
25948;SDS011;13961;51.178;4.448;2023-04-06T05:06:04;21.85;;;10.10;;
25948;SDS011;13961;51.178;4.448;2023-04-06T05:08:30;20.95;;;9.25;;
25948;SDS011;13961;51.178;4.448;2023-04-06T05:10:55;19.92;;;10.23;;
25948;SDS011;13961;51.178;4.448;2023-04-06T05:13:21;21.95;;;10.18;;
25948;SDS011;13961;51.178;4.448;2023-04-06T05:15:47;19.95;;;9.05;;
25948;SDS011;13961;51.178;4.448;2023-04-06T05:18:13;19.17;;;10.05;;
25948;SDS011;13961;51.178;4.448;2023-04-06T05:20:39;20.35;;;9.65;;
25948;SDS011;13961;51.178;4.448;2023-04-06T05:23:04;18.65;;;9.93;;
25948;SDS011;13961;51.178;4.448;2023-04-06T05:25:30;22.67;;;11.15;;
25948;SDS011;13961;51.178;4.448;2023-04-06T05:27:56;22.45;;;10.48;;
25948;SDS011;13961;51.178;4.448;2023-04-06T05:30:25;22.00;;;11.10;;
25948;SDS011;13961;51.178;4.448;2023-04-06T05:32:51;26.08;;;10.73;;
25948;SDS011;13961;51.178;4.448;2023-04-06T05:35:16;23.55;;;10.77;;
25948;SDS011;13961;51.178;4.448;2023-04-06T05:37:42;24.80;;;11.05;;
25948;SDS011;13961;51.178;4.448;2023-04-06T05:40:08;25.60;;;11.38;;
25948;SDS011;13961;51.178;4.448;2023-04-06T05:42:41;21.02;;;10.48;;
25948;SDS011;13961;51.178;4.448;2023-04-06T05:45:08;20.05;;;10.75;;
25948;SDS011;13961;51.178;4.448;2023-04-06T05:47:35;23.48;;;11.70;;
25948;SDS011;13961;51.178;4.448;2023-04-06T05:50:02;26.27;;;12.00;;
25948;SDS011;13961;51.178;4.448;2023-04-06T05:52:27;20.15;;;11.05;;
25948;SDS011;13961;51.178;4.448;2023-04-06T05:54:53;25.38;;;11.32;;
25948;SDS011;13961;51.178;4.448;2023-04-06T05:57:19;21.38;;;10.95;;
25948;SDS011;13961;51.178;4.448;2023-04-06T05:59:45;20.58;;;11.20;;
25948;SDS011;13961;51.178;4.448;2023-04-06T06:02:10;20.75;;;11.80;;
25948;SDS011;13961;51.178;4.448;2023-04-06T06:04:36;21.77;;;12.48;;
25948;SDS011;13961;51.178;4.448;2023-04-06T06:07:02;25.85;;;12.68;;
25948;SDS011;13961;51.178;4.448;2023-04-06T06:09:28;26.20;;;11.98;;
25948;SDS011;13961;51.178;4.448;2023-04-06T06:11:54;26.27;;;13.55;;
25948;SDS011;13961;51.178;4.448;2023-04-06T06:14:20;26.15;;;12.90;;
25948;SDS011;13961;51.178;4.448;2023-04-06T06:16:46;24.20;;;12.70;;
25948;SDS011;13961;51.178;4.448;2023-04-06T06:19:12;29.00;;;13.25;;
25948;SDS011;13961;51.178;4.448;2023-04-06T06:21:38;28.25;;;12.80;;
25948;SDS011;13961;51.178;4.448;2023-04-06T06:24:04;24.77;;;12.90;;
25948;SDS011;13961;51.178;4.448;2023-04-06T06:26:30;29.02;;;12.98;;
25948;SDS011;13961;51.178;4.448;2023-04-06T06:28:56;26.95;;;13.77;;
25948;SDS011;13961;51.178;4.448;2023-04-06T06:31:22;31.50;;;13.90;;
25948;SDS011;13961;51.178;4.448;2023-04-06T06:33:50;29.15;;;13.95;;
25948;SDS011;13961;51.178;4.448;2023-04-06T06:36:16;27.48;;;13.80;;
25948;SDS011;13961;51.178;4.448;2023-04-06T06:38:43;28.23;;;14.98;;
25948;SDS011;13961;51.178;4.448;2023-04-06T06:41:09;33.28;;;15.38;;
25948;SDS011;13961;51.178;4.448;2023-04-06T06:43:35;29.67;;;15.13;;
25948;SDS011;13961;51.178;4.448;2023-04-06T06:46:00;33.10;;;14.98;;
25948;SDS011;13961;51.178;4.448;2023-04-06T06:48:26;31.48;;;15.48;;
25948;SDS011;13961;51.178;4.448;2023-04-06T06:50:52;32.25;;;16.15;;
25948;SDS011;13961;51.178;4.448;2023-04-06T06:53:21;30.92;;;16.02;;
25948;SDS011;13961;51.178;4.448;2023-04-06T06:55:47;29.83;;;15.63;;
25948;SDS011;13961;51.178;4.448;2023-04-06T06:58:14;34.80;;;16.45;;
25948;SDS011;13961;51.178;4.448;2023-04-06T07:00:40;35.42;;;16.80;;
25948;SDS011;13961;51.178;4.448;2023-04-06T07:03:05;31.90;;;15.85;;
25948;SDS011;13961;51.178;4.448;2023-04-06T07:05:31;31.55;;;16.17;;
25948;SDS011;13961;51.178;4.448;2023-04-06T07:07:57;31.88;;;15.95;;
25948;SDS011;13961;51.178;4.448;2023-04-06T07:10:23;34.53;;;16.05;;
25948;SDS011;13961;51.178;4.448;2023-04-06T07:12:49;32.60;;;16.08;;
25948;SDS011;13961;51.178;4.448;2023-04-06T07:15:15;33.72;;;15.70;;
25948;SDS011;13961;51.178;4.448;2023-04-06T07:17:42;29.50;;;15.90;;
25948;SDS011;13961;51.178;4.448;2023-04-06T07:20:10;28.42;;;15.60;;
25948;SDS011;13961;51.178;4.448;2023-04-06T07:22:37;33.13;;;16.30;;
25948;SDS011;13961;51.178;4.448;2023-04-06T07:25:04;28.48;;;15.75;;
25948;SDS011;13961;51.178;4.448;2023-04-06T07:27:30;29.80;;;15.77;;
25948;SDS011;13961;51.178;4.448;2023-04-06T07:29:56;31.30;;;15.88;;
25948;SDS011;13961;51.178;4.448;2023-04-06T07:32:22;32.80;;;15.50;;
25948;SDS011;13961;51.178;4.448;2023-04-06T07:34:48;30.95;;;15.30;;
25948;SDS011;13961;51.178;4.448;2023-04-06T07:37:13;28.30;;;15.10;;
25948;SDS011;13961;51.178;4.448;2023-04-06T07:39:39;30.80;;;14.65;;
25948;SDS011;13961;51.178;4.448;2023-04-06T07:42:05;29.70;;;14.50;;
25948;SDS011;13961;51.178;4.448;2023-04-06T07:44:31;25.48;;;14.13;;
25948;SDS011;13961;51.178;4.448;2023-04-06T07:46:57;27.05;;;13.27;;
25948;SDS011;13961;51.178;4.448;2023-04-06T07:49:22;31.85;;;13.77;;
25948;SDS011;13961;51.178;4.448;2023-04-06T07:51:48;28.52;;;12.43;;
25948;SDS011;13961;51.178;4.448;2023-04-06T07:54:14;25.40;;;13.02;;
25948;SDS011;13961;51.178;4.448;2023-04-06T07:56:40;27.75;;;12.23;;
25948;SDS011;13961;51.178;4.448;2023-04-06T07:59:06;27.02;;;12.23;;
25948;SDS011;13961;51.178;4.448;2023-04-06T08:01:31;25.38;;;12.43;;
25948;SDS011;13961;51.178;4.448;2023-04-06T08:03:57;28.50;;;13.32;;
25948;SDS011;13961;51.178;4.448;2023-04-06T08:06:23;28.10;;;12.27;;
25948;SDS011;13961;51.178;4.448;2023-04-06T08:08:49;26.73;;;12.65;;
25948;SDS011;13961;51.178;4.448;2023-04-06T08:11:14;24.88;;;11.63;;
25948;SDS011;13961;51.178;4.448;2023-04-06T08:13:40;19.65;;;11.25;;
25948;SDS011;13961;51.178;4.448;2023-04-06T08:16:06;22.95;;;10.82;;
25948;SDS011;13961;51.178;4.448;2023-04-06T08:18:32;22.02;;;11.20;;
25948;SDS011;13961;51.178;4.448;2023-04-06T08:20:57;18.48;;;8.80;;
25948;SDS011;13961;51.178;4.448;2023-04-06T08:23:23;17.25;;;9.57;;
25948;SDS011;13961;51.178;4.448;2023-04-06T08:25:49;17.88;;;9.38;;
25948;SDS011;13961;51.178;4.448;2023-04-06T08:28:15;19.10;;;9.90;;
25948;SDS011;13961;51.178;4.448;2023-04-06T08:30:41;22.45;;;9.88;;
25948;SDS011;13961;51.178;4.448;2023-04-06T08:33:07;18.45;;;9.40;;
25948;SDS011;13961;51.178;4.448;2023-04-06T08:35:33;17.30;;;9.10;;
25948;SDS011;13961;51.178;4.448;2023-04-06T08:37:59;22.77;;;9.32;;
25948;SDS011;13961;51.178;4.448;2023-04-06T08:40:25;22.05;;;9.48;;
25948;SDS011;13961;51.178;4.448;2023-04-06T08:42:55;19.70;;;9.45;;
25948;SDS011;13961;51.178;4.448;2023-04-06T08:45:22;16.63;;;8.65;;
25948;SDS011;13961;51.178;4.448;2023-04-06T08:47:48;21.05;;;9.93;;
25948;SDS011;13961;51.178;4.448;2023-04-06T08:50:16;19.15;;;9.35;;
25948;SDS011;13961;51.178;4.448;2023-04-06T08:52:43;15.95;;;8.52;;
25948;SDS011;13961;51.178;4.448;2023-04-06T08:55:11;15.43;;;8.15;;
25948;SDS011;13961;51.178;4.448;2023-04-06T08:57:37;12.80;;;7.50;;
25948;SDS011;13961;51.178;4.448;2023-04-06T09:00:04;14.77;;;7.30;;
25948;SDS011;13961;51.178;4.448;2023-04-06T09:02:37;11.05;;;6.88;;
25948;SDS011;13961;51.178;4.448;2023-04-06T09:05:06;12.38;;;7.13;;
25948;SDS011;13961;51.178;4.448;2023-04-06T09:10:25;11.10;;;6.20;;
25948;SDS011;13961;51.178;4.448;2023-04-06T09:13:02;10.07;;;5.53;;
25948;SDS011;13961;51.178;4.448;2023-04-06T09:15:29;12.00;;;5.88;;
25948;SDS011;13961;51.178;4.448;2023-04-06T09:17:55;12.55;;;5.70;;
25948;SDS011;13961;51.178;4.448;2023-04-06T09:20:24;10.05;;;6.13;;
25948;SDS011;13961;51.178;4.448;2023-04-06T09:22:52;11.07;;;5.50;;
25948;SDS011;13961;51.178;4.448;2023-04-06T09:25:19;9.07;;;5.07;;
25948;SDS011;13961;51.178;4.448;2023-04-06T09:27:46;10.75;;;4.97;;
25948;SDS011;13961;51.178;4.448;2023-04-06T09:30:12;9.18;;;5.32;;
25948;SDS011;13961;51.178;4.448;2023-04-06T09:35:14;10.13;;;5.13;;
25948;SDS011;13961;51.178;4.448;2023-04-06T09:37:41;10.32;;;5.30;;
25948;SDS011;13961;51.178;4.448;2023-04-06T09:40:08;9.40;;;5.47;;
25948;SDS011;13961;51.178;4.448;2023-04-06T09:42:34;9.68;;;5.70;;
25948;SDS011;13961;51.178;4.448;2023-04-06T09:45:01;13.20;;;6.32;;
25948;SDS011;13961;51.178;4.448;2023-04-06T09:47:27;11.90;;;5.60;;
25948;SDS011;13961;51.178;4.448;2023-04-06T09:49:55;11.05;;;6.32;;
25948;SDS011;13961;51.178;4.448;2023-04-06T09:52:27;12.40;;;6.15;;
25948;SDS011;13961;51.178;4.448;2023-04-06T09:55:18;13.82;;;6.68;;
25948;SDS011;13961;51.178;4.448;2023-04-06T10:00:40;14.32;;;6.55;;
25948;SDS011;13961;51.178;4.448;2023-04-06T10:08:20;15.13;;;7.10;;
25948;SDS011;13961;51.178;4.448;2023-04-06T10:10:52;12.40;;;7.47;;
25948;SDS011;13961;51.178;4.448;2023-04-06T10:13:18;14.00;;;7.03;;
25948;SDS011;13961;51.178;4.448;2023-04-06T10:15:44;13.73;;;7.35;;
25948;SDS011;13961;51.178;4.448;2023-04-06T10:18:10;16.33;;;7.82;;
25948;SDS011;13961;51.178;4.448;2023-04-06T10:20:56;15.90;;;7.82;;
25948;SDS011;13961;51.178;4.448;2023-04-06T10:25:53;16.08;;;7.38;;
25948;SDS011;13961;51.178;4.448;2023-04-06T10:28:20;15.93;;;7.57;;
25948;SDS011;13961;51.178;4.448;2023-04-06T10:30:46;15.40;;;8.30;;
25948;SDS011;13961;51.178;4.448;2023-04-06T10:33:18;15.80;;;8.10;;
25948;SDS011;13961;51.178;4.448;2023-04-06T10:35:45;14.93;;;7.65;;
25948;SDS011;13961;51.178;4.448;2023-04-06T10:38:11;17.75;;;7.88;;
25948;SDS011;13961;51.178;4.448;2023-04-06T10:40:39;14.57;;;7.93;;
25948;SDS011;13961;51.178;4.448;2023-04-06T10:43:08;16.70;;;8.10;;
25948;SDS011;13961;51.178;4.448;2023-04-06T10:45:34;16.42;;;8.20;;
25948;SDS011;13961;51.178;4.448;2023-04-06T10:48:04;16.42;;;7.82;;
25948;SDS011;13961;51.178;4.448;2023-04-06T10:50:46;17.20;;;8.38;;
25948;SDS011;13961;51.178;4.448;2023-04-06T10:53:20;15.52;;;7.95;;
25948;SDS011;13961;51.178;4.448;2023-04-06T10:55:50;15.48;;;7.70;;
25948;SDS011;13961;51.178;4.448;2023-04-06T10:58:17;13.15;;;7.30;;
25948;SDS011;13961;51.178;4.448;2023-04-06T11:00:47;17.73;;;8.43;;
25948;SDS011;13961;51.178;4.448;2023-04-06T11:03:13;16.63;;;8.15;;
25948;SDS011;13961;51.178;4.448;2023-04-06T11:05:43;16.73;;;8.60;;
25948;SDS011;13961;51.178;4.448;2023-04-06T11:08:10;17.45;;;9.23;;
25948;SDS011;13961;51.178;4.448;2023-04-06T11:10:35;14.90;;;8.30;;
25948;SDS011;13961;51.178;4.448;2023-04-06T11:13:01;17.38;;;8.18;;
25948;SDS011;13961;51.178;4.448;2023-04-06T11:15:33;15.63;;;8.45;;
25948;SDS011;13961;51.178;4.448;2023-04-06T11:18:03;15.85;;;8.57;;
25948;SDS011;13961;51.178;4.448;2023-04-06T11:20:29;17.13;;;8.70;;
25948;SDS011;13961;51.178;4.448;2023-04-06T11:22:55;17.33;;;9.40;;
25948;SDS011;13961;51.178;4.448;2023-04-06T11:25:21;16.08;;;8.07;;
25948;SDS011;13961;51.178;4.448;2023-04-06T11:27:46;17.30;;;9.50;;
25948;SDS011;13961;51.178;4.448;2023-04-06T11:30:13;16.02;;;8.48;;
25948;SDS011;13961;51.178;4.448;2023-04-06T11:32:43;17.40;;;8.85;;
25948;SDS011;13961;51.178;4.448;2023-04-06T11:35:10;19.55;;;9.38;;
25948;SDS011;13961;51.178;4.448;2023-04-06T11:37:48;17.98;;;9.30;;
25948;SDS011;13961;51.178;4.448;2023-04-06T11:40:22;17.85;;;9.50;;
25948;SDS011;13961;51.178;4.448;2023-04-06T11:42:53;20.05;;;9.43;;
25948;SDS011;13961;51.178;4.448;2023-04-06T11:45:20;16.33;;;9.45;;
25948;SDS011;13961;51.178;4.448;2023-04-06T11:47:54;16.23;;;10.02;;
25948;SDS011;13961;51.178;4.448;2023-04-06T11:50:25;17.65;;;9.73;;
25948;SDS011;13961;51.178;4.448;2023-04-06T11:53:00;17.80;;;10.20;;
25948;SDS011;13961;51.178;4.448;2023-04-06T11:55:27;21.77;;;10.02;;
25948;SDS011;13961;51.178;4.448;2023-04-06T11:57:53;19.80;;;10.07;;
25948;SDS011;13961;51.178;4.448;2023-04-06T12:00:20;18.08;;;10.27;;
25948;SDS011;13961;51.178;4.448;2023-04-06T12:02:47;20.55;;;10.30;;
25948;SDS011;13961;51.178;4.448;2023-04-06T12:05:13;20.17;;;10.63;;
25948;SDS011;13961;51.178;4.448;2023-04-06T12:07:40;19.52;;;10.23;;
25948;SDS011;13961;51.178;4.448;2023-04-06T12:10:05;20.33;;;10.10;;
25948;SDS011;13961;51.178;4.448;2023-04-06T12:12:31;21.02;;;10.20;;
25948;SDS011;13961;51.178;4.448;2023-04-06T12:14:57;16.75;;;9.73;;
25948;SDS011;13961;51.178;4.448;2023-04-06T12:17:23;18.25;;;9.68;;
25948;SDS011;13961;51.178;4.448;2023-04-06T12:19:49;22.40;;;10.45;;
25948;SDS011;13961;51.178;4.448;2023-04-06T12:22:15;19.17;;;10.60;;
25948;SDS011;13961;51.178;4.448;2023-04-06T12:24:42;21.20;;;10.38;;
25948;SDS011;13961;51.178;4.448;2023-04-06T12:27:09;18.42;;;11.02;;
25948;SDS011;13961;51.178;4.448;2023-04-06T12:29:36;22.33;;;10.38;;
25948;SDS011;13961;51.178;4.448;2023-04-06T12:32:03;16.58;;;10.02;;
25948;SDS011;13961;51.178;4.448;2023-04-06T12:34:28;22.85;;;10.52;;
25948;SDS011;13961;51.178;4.448;2023-04-06T12:36:54;18.25;;;10.52;;
25948;SDS011;13961;51.178;4.448;2023-04-06T12:39:21;18.08;;;9.82;;
25948;SDS011;13961;51.178;4.448;2023-04-06T12:41:50;18.42;;;9.43;;
25948;SDS011;13961;51.178;4.448;2023-04-06T12:44:15;16.80;;;9.40;;
25948;SDS011;13961;51.178;4.448;2023-04-06T12:46:41;16.10;;;9.88;;
25948;SDS011;13961;51.178;4.448;2023-04-06T12:49:08;19.52;;;10.30;;
25948;SDS011;13961;51.178;4.448;2023-04-06T12:51:33;22.58;;;10.10;;
25948;SDS011;13961;51.178;4.448;2023-04-06T12:53:59;15.68;;;9.90;;
25948;SDS011;13961;51.178;4.448;2023-04-06T12:56:26;16.45;;;9.48;;
25948;SDS011;13961;51.178;4.448;2023-04-06T12:58:51;17.58;;;9.43;;
25948;SDS011;13961;51.178;4.448;2023-04-06T13:01:20;18.88;;;10.25;;
25948;SDS011;13961;51.178;4.448;2023-04-06T13:03:46;19.40;;;10.02;;
25948;SDS011;13961;51.178;4.448;2023-04-06T13:06:12;17.25;;;9.85;;
25948;SDS011;13961;51.178;4.448;2023-04-06T13:08:41;16.15;;;9.48;;
25948;SDS011;13961;51.178;4.448;2023-04-06T13:11:07;15.63;;;9.15;;
25948;SDS011;13961;51.178;4.448;2023-04-06T13:13:35;20.90;;;10.10;;
25948;SDS011;13961;51.178;4.448;2023-04-06T13:16:06;16.45;;;8.93;;
25948;SDS011;13961;51.178;4.448;2023-04-06T13:18:33;16.65;;;9.27;;
25948;SDS011;13961;51.178;4.448;2023-04-06T13:21:00;19.08;;;10.15;;
25948;SDS011;13961;51.178;4.448;2023-04-06T13:23:25;18.98;;;10.15;;
25948;SDS011;13961;51.178;4.448;2023-04-06T13:26:04;14.45;;;8.90;;
25948;SDS011;13961;51.178;4.448;2023-04-06T13:28:31;17.55;;;9.65;;
25948;SDS011;13961;51.178;4.448;2023-04-06T13:30:58;14.80;;;9.10;;
25948;SDS011;13961;51.178;4.448;2023-04-06T13:33:29;15.27;;;9.43;;
25948;SDS011;13961;51.178;4.448;2023-04-06T13:35:55;15.60;;;9.15;;
25948;SDS011;13961;51.178;4.448;2023-04-06T13:38:21;14.05;;;8.77;;
25948;SDS011;13961;51.178;4.448;2023-04-06T13:40:48;17.77;;;10.10;;
25948;SDS011;13961;51.178;4.448;2023-04-06T13:43:15;16.13;;;10.25;;
25948;SDS011;13961;51.178;4.448;2023-04-06T13:45:40;18.75;;;10.40;;
25948;SDS011;13961;51.178;4.448;2023-04-06T13:48:13;19.00;;;9.98;;
25948;SDS011;13961;51.178;4.448;2023-04-06T13:50:39;16.25;;;9.63;;
25948;SDS011;13961;51.178;4.448;2023-04-06T13:53:04;17.38;;;10.45;;
25948;SDS011;13961;51.178;4.448;2023-04-06T13:55:30;20.00;;;11.10;;
25948;SDS011;13961;51.178;4.448;2023-04-06T13:57:56;18.30;;;10.13;;
25948;SDS011;13961;51.178;4.448;2023-04-06T14:00:22;18.20;;;10.40;;
25948;SDS011;13961;51.178;4.448;2023-04-06T14:02:48;17.67;;;11.30;;
25948;SDS011;13961;51.178;4.448;2023-04-06T14:05:14;17.80;;;9.85;;
25948;SDS011;13961;51.178;4.448;2023-04-06T14:07:40;22.80;;;11.48;;
25948;SDS011;13961;51.178;4.448;2023-04-06T14:10:06;18.90;;;11.45;;
25948;SDS011;13961;51.178;4.448;2023-04-06T14:12:39;21.90;;;11.65;;
25948;SDS011;13961;51.178;4.448;2023-04-06T14:15:06;21.08;;;12.13;;
25948;SDS011;13961;51.178;4.448;2023-04-06T14:17:33;19.65;;;12.02;;
25948;SDS011;13961;51.178;4.448;2023-04-06T14:19:59;23.77;;;12.75;;
25948;SDS011;13961;51.178;4.448;2023-04-06T14:22:24;23.40;;;12.95;;
25948;SDS011;13961;51.178;4.448;2023-04-06T14:24:51;20.92;;;11.95;;
25948;SDS011;13961;51.178;4.448;2023-04-06T14:27:16;20.50;;;12.60;;
25948;SDS011;13961;51.178;4.448;2023-04-06T14:29:42;22.55;;;12.07;;
25948;SDS011;13961;51.178;4.448;2023-04-06T14:32:08;23.80;;;13.50;;
25948;SDS011;13961;51.178;4.448;2023-04-06T14:34:36;23.20;;;12.95;;
25948;SDS011;13961;51.178;4.448;2023-04-06T14:37:02;21.30;;;12.25;;
25948;SDS011;13961;51.178;4.448;2023-04-06T14:39:28;22.27;;;12.45;;
25948;SDS011;13961;51.178;4.448;2023-04-06T14:41:53;23.35;;;13.32;;